Terminal Aerodrome Forecast
Issued by NWS

Home | Current Version | Previous Version | Text Only | Print | Product List | Glossary On
Versions: 1 2 3 4 5 6 7 8 9 10 11 12 13 14 15 16 17 18 19 20 21 22
000
FTUS43 KDLH 041726
TAFBRD
TAF
KBRD 041726Z 0418/0518 16006KT 4SM HZ FU FEW040
     FM042000 18011KT 6SM HZ FU SCT050
     FM050200 18004KT P6SM FEW050
     FM050700 18004KT P6SM FEW250 WS015/22040KT
     FM051300 17006KT P6SM FEW250
     FM051700 19009G16KT P6SM SCT250=

USA.gov is the U.S. government's official web portal to all federal, state and local government web resources and services.